createdAt,value
2019-05-02T00:02:10.586Z,24.73
2019-05-02T00:04:41.590Z,25.10
2019-05-02T00:07:14.568Z,22.50
2019-05-02T00:09:48.495Z,23.60
2019-05-02T00:12:19.151Z,23.90
2019-05-02T00:14:49.937Z,24.00
2019-05-02T00:17:25.780Z,26.20
2019-05-02T00:19:54.293Z,25.17
2019-05-02T00:22:25.065Z,26.13
2019-05-02T00:24:55.838Z,22.83
2019-05-02T00:27:26.609Z,26.07
2019-05-02T00:29:58.848Z,24.53
2019-05-02T00:32:30.064Z,23.42
2019-05-02T00:35:00.835Z,25.13
2019-05-02T00:37:31.615Z,24.13
2019-05-02T00:40:04.892Z,26.00
2019-05-02T00:42:35.670Z,26.25
2019-05-02T00:45:06.647Z,23.20
2019-05-02T00:47:42.181Z,24.90
2019-05-02T00:50:12.670Z,24.57
2019-05-02T00:52:43.503Z,24.63
2019-05-02T00:55:14.276Z,25.23
2019-05-02T00:57:45.045Z,28.00
2019-05-02T01:00:18.253Z,24.00
2019-05-02T01:02:50.611Z,24.85
2019-05-02T01:05:21.390Z,24.32
2019-05-02T01:07:56.083Z,25.50
2019-05-02T01:10:25.142Z,25.80
2019-05-02T01:12:55.930Z,27.93
2019-05-02T01:15:26.707Z,24.53
2019-05-02T01:18:01.047Z,24.40
2019-05-02T01:20:30.167Z,25.52
2019-05-02T01:23:00.935Z,26.43
2019-05-02T01:25:31.706Z,25.40
2019-05-02T01:28:19.499Z,25.87
2019-05-02T01:31:01.223Z,23.95
2019-05-02T01:33:36.889Z,25.08
2019-05-02T01:36:14.078Z,27.98
2019-05-02T01:38:46.743Z,25.55
2019-05-02T01:41:17.526Z,27.07
2019-05-02T01:43:48.285Z,26.83
2019-05-02T01:46:22.613Z,27.10
2019-05-02T01:48:51.739Z,28.02
2019-05-02T01:51:22.507Z,26.07
2019-05-02T01:53:53.292Z,28.47
2019-05-02T01:56:24.067Z,24.90
2019-05-02T01:58:57.840Z,27.60
2019-05-02T02:01:27.508Z,25.25
2019-05-02T02:03:58.278Z,28.30
2019-05-02T02:06:29.058Z,25.80
2019-05-02T02:09:03.491Z,25.83
2019-05-02T02:11:34.033Z,24.70
2019-05-02T02:14:07.384Z,24.45
2019-05-02T02:16:39.266Z,26.17
2019-05-02T02:19:15.280Z,28.45
2019-05-02T02:22:02.181Z,27.13
2019-05-02T02:24:31.696Z,27.13
2019-05-02T02:27:02.787Z,24.80
2019-05-02T02:29:33.552Z,28.15
2019-05-02T02:32:04.334Z,26.60
2019-05-02T02:34:35.087Z,26.27
2019-05-02T02:37:12.435Z,27.70
2019-05-02T02:39:38.797Z,25.92
2019-05-02T02:42:09.882Z,27.07
2019-05-02T02:44:54.402Z,29.50
2019-05-02T02:47:25.686Z,27.80
2019-05-02T02:50:02.777Z,25.08
2019-05-02T02:52:29.153Z,27.73
2019-05-02T02:54:59.918Z,27.60
2019-05-02T02:57:30.692Z,29.70
2019-05-02T03:00:07.871Z,28.00
2019-05-02T03:02:34.190Z,26.20
2019-05-02T03:05:05.025Z,28.80
2019-05-02T03:07:35.816Z,28.00
2019-05-02T03:10:08.440Z,28.33
2019-05-02T03:12:43.834Z,28.77
2019-05-02T03:15:21.062Z,29.55
2019-05-02T03:17:49.179Z,28.70
2019-05-02T03:20:19.951Z,30.57
2019-05-02T03:22:51.426Z,26.40
2019-05-02T03:25:27.093Z,32.38
2019-05-02T03:27:55.064Z,30.95
2019-05-02T03:30:37.394Z,34.93
2019-05-02T03:33:06.301Z,38.80
2019-05-02T03:35:43.149Z,40.88
2019-05-02T03:38:04.256Z,32.13
2019-05-02T03:40:39.141Z,32.63
2019-05-02T03:43:07.906Z,32.85
2019-05-02T03:45:42.912Z,30.70
2019-05-02T03:48:18.016Z,32.35
2019-05-02T03:50:44.234Z,33.00
2019-05-02T03:53:17.756Z,31.37
2019-05-02T03:55:51.892Z,32.88
2019-05-02T03:58:48.746Z,33.63
2019-05-02T04:01:16.204Z,37.20
2019-05-02T04:03:52.560Z,36.65
2019-05-02T04:06:32.604Z,38.48
2019-05-02T04:14:39.850Z,35.80
2019-05-02T04:17:35.250Z,38.63
2019-05-02T04:20:09.773Z,39.48
2019-05-02T04:23:36.143Z,37.55
2019-05-02T04:26:32.670Z,35.08
2019-05-02T04:29:09.304Z,35.35
2019-05-02T04:31:47.020Z,44.55
2019-05-02T04:36:15.194Z,39.15
2019-05-02T05:11:17.971Z,40.20
2019-05-02T05:14:00.799Z,37.45
2019-05-02T05:18:49.414Z,40.15
2019-05-02T05:22:18.233Z,35.78
2019-05-02T05:25:31.311Z,37.60
2019-05-02T05:28:11.147Z,36.50
2019-05-02T05:31:38.332Z,36.48
2019-05-02T05:34:14.498Z,38.17
2019-05-02T05:36:48.144Z,33.13
2019-05-02T05:39:18.703Z,36.85
2019-05-02T05:41:52.364Z,33.30
2019-05-02T05:44:23.426Z,32.05
2019-05-02T05:46:54.979Z,37.75
2019-05-02T05:49:25.763Z,37.27
2019-05-02T05:52:02.169Z,34.50
2019-05-02T05:54:33.161Z,31.70
2019-05-02T05:57:01.988Z,33.45
2019-05-02T05:59:32.795Z,30.20
2019-05-02T06:02:05.620Z,30.43
2019-05-02T06:04:38.266Z,32.98
2019-05-02T06:07:09.213Z,30.08
2019-05-02T06:09:40.007Z,27.63
2019-05-02T06:12:13.779Z,29.20
2019-05-02T06:14:46.446Z,28.53
2019-05-02T06:17:17.192Z,28.87
2019-05-02T06:19:53.431Z,27.60
2019-05-02T06:22:24.479Z,28.40
2019-05-02T06:24:53.773Z,27.47
2019-05-02T06:27:26.016Z,26.70
2019-05-02T06:29:57.404Z,29.40
2019-05-02T06:32:28.119Z,28.20
2019-05-02T06:34:58.892Z,26.53
2019-05-02T06:37:29.710Z,26.00
2019-05-02T06:40:03.108Z,26.83
2019-05-02T06:42:34.927Z,29.07
2019-05-02T06:45:07.295Z,24.83
2019-05-02T06:47:41.499Z,27.90
2019-05-02T06:50:11.449Z,27.33
2019-05-02T06:52:42.245Z,27.03
2019-05-02T06:55:13.364Z,26.17
2019-05-02T06:57:44.141Z,25.37
2019-05-02T07:00:15.123Z,24.90
2019-05-02T07:02:45.892Z,25.33
2019-05-02T07:05:16.667Z,26.50
2019-05-02T07:07:47.565Z,26.93
2019-05-02T07:10:20.270Z,25.60
2019-05-02T07:12:56.732Z,24.77
2019-05-02T07:15:44.083Z,24.70
2019-05-02T07:18:16.764Z,26.10
2019-05-02T07:20:47.553Z,26.97
2019-05-02T07:23:18.497Z,27.13
2019-05-02T07:25:49.329Z,25.00
2019-05-02T07:28:20.100Z,23.63
2019-05-02T07:30:50.871Z,26.93
2019-05-02T07:33:21.658Z,25.50
2019-05-02T07:35:55.288Z,25.87
2019-05-02T07:38:26.105Z,25.87
2019-05-02T07:40:58.420Z,25.50
2019-05-02T07:43:29.206Z,26.83
2019-05-02T07:45:59.999Z,26.43
2019-05-02T07:48:30.788Z,24.83
2019-05-02T07:51:01.563Z,25.33
2019-05-02T07:53:32.642Z,27.03
2019-05-02T07:56:03.425Z,27.60
2019-05-02T07:58:38.503Z,29.93
2019-05-02T08:01:08.003Z,27.83
2019-05-02T08:03:39.626Z,25.97
2019-05-02T08:06:10.441Z,28.07
2019-05-02T08:08:41.228Z,28.40
2019-05-02T08:11:12.091Z,26.30
2019-05-02T08:13:42.889Z,27.53
2019-05-02T08:16:13.679Z,26.30
2019-05-02T08:18:44.467Z,26.23
2019-05-02T08:21:15.237Z,26.23
2019-05-02T08:23:46.025Z,26.63
2019-05-02T08:26:21.588Z,24.57
2019-05-02T08:28:51.917Z,25.37
2019-05-02T08:31:23.972Z,25.57
2019-05-02T08:33:54.751Z,25.03
2019-05-02T08:36:25.532Z,28.47
2019-05-02T08:38:56.325Z,30.30
2019-05-02T08:41:27.092Z,26.50
2019-05-02T08:43:57.875Z,27.13
2019-05-02T08:46:28.668Z,26.17
2019-05-02T08:48:59.436Z,26.17
2019-05-02T08:51:30.753Z,26.63
2019-05-02T08:54:01.529Z,24.87
2019-05-02T08:56:34.909Z,25.50
2019-05-02T08:59:04.995Z,26.97
2019-05-02T09:01:35.784Z,27.60
2019-05-02T09:04:06.782Z,28.40
2019-05-02T09:06:37.659Z,24.77
2019-05-02T09:09:08.444Z,27.63
2019-05-02T09:11:39.320Z,26.87
2019-05-02T09:14:12.419Z,26.13
2019-05-02T09:16:42.819Z,24.83
2019-05-02T09:19:21.348Z,26.07
2019-05-02T09:21:46.205Z,25.10
2019-05-02T09:24:21.171Z,23.23
2019-05-02T09:26:51.770Z,24.27
2019-05-02T09:29:22.452Z,22.10
2019-05-02T09:31:53.224Z,24.43
2019-05-02T09:34:26.705Z,23.63
2019-05-02T09:36:56.724Z,22.83
2019-05-02T09:39:34.703Z,24.00
2019-05-02T09:42:02.196Z,21.70
2019-05-02T09:44:33.262Z,21.63
2019-05-02T09:47:04.221Z,23.73
2019-05-02T09:49:35.015Z,22.97
2019-05-02T09:52:05.781Z,20.23
2019-05-02T09:54:37.061Z,21.67
2019-05-02T09:57:09.235Z,22.27
2019-05-02T09:59:44.883Z,23.67
2019-05-02T10:02:12.776Z,22.83
2019-05-02T10:04:44.190Z,24.47
2019-05-02T10:07:15.615Z,25.87
2019-05-02T10:09:46.422Z,23.90
2019-05-02T10:12:17.252Z,22.77
2019-05-02T10:14:48.068Z,23.20
2019-05-02T10:17:18.946Z,21.63
2019-05-02T10:19:54.981Z,21.60
2019-05-02T10:22:24.881Z,21.50
2019-05-02T10:24:55.138Z,22.63
2019-05-02T10:27:25.921Z,22.37
2019-05-02T10:29:57.230Z,19.97
2019-05-02T10:32:28.326Z,19.37
2019-05-02T10:34:59.139Z,13.93
2019-05-02T10:37:37.681Z,14.20
2019-05-02T10:40:07.826Z,13.30
2019-05-02T10:42:37.990Z,13.23
2019-05-02T10:45:13.111Z,13.83
2019-05-02T10:47:42.355Z,13.80
2019-05-02T10:50:15.420Z,13.57
2019-05-02T10:52:46.188Z,13.00
2019-05-02T10:55:17.078Z,12.97
2019-05-02T10:57:47.848Z,12.83
2019-05-02T11:00:22.086Z,13.80
2019-05-02T11:03:12.065Z,13.53
2019-05-02T11:05:47.868Z,12.90
2019-05-02T11:08:18.658Z,13.50
2019-05-02T11:10:49.438Z,14.20
2019-05-02T11:13:39.170Z,11.77
2019-05-02T11:16:14.598Z,12.83
2019-05-02T11:18:53.259Z,13.30
2019-05-02T11:21:24.147Z,12.53
2019-05-02T11:23:55.135Z,12.93
2019-05-02T11:26:25.941Z,12.00
2019-05-02T11:28:56.758Z,12.80
2019-05-02T11:31:27.563Z,12.33
2019-05-02T11:33:58.329Z,12.07
2019-05-02T11:36:29.407Z,11.07
2019-05-02T11:39:10.179Z,12.30
2019-05-02T11:41:32.882Z,14.10
2019-05-02T11:44:03.674Z,13.50
2019-05-02T11:46:37.586Z,13.00
2019-05-02T11:49:07.115Z,12.00
2019-05-02T11:51:37.892Z,13.23
2019-05-02T11:54:09.472Z,13.00
2019-05-02T11:56:41.108Z,12.00
2019-05-02T11:59:14.946Z,12.20
2019-05-02T12:01:59.062Z,11.30
2019-05-02T12:04:21.540Z,11.70
2019-05-02T12:07:01.071Z,12.60
2019-05-02T12:09:25.145Z,14.07
2019-05-02T12:11:56.736Z,12.40
2019-05-02T12:14:32.808Z,13.57
2019-05-02T12:17:02.548Z,14.00
2019-05-02T12:19:33.330Z,12.03
2019-05-02T12:22:07.202Z,12.63
2019-05-02T12:24:40.912Z,13.17
2019-05-02T12:27:09.586Z,11.90
2019-05-02T12:29:42.378Z,12.30
2019-05-02T12:32:15.491Z,12.70
2019-05-02T12:34:45.931Z,12.20
2019-05-02T12:37:16.743Z,11.97
2019-05-02T12:39:47.522Z,12.57
2019-05-02T12:42:18.707Z,13.50
2019-05-02T12:44:49.677Z,13.23
2019-05-02T12:47:22.439Z,13.17
2019-05-02T12:49:53.358Z,12.87
2019-05-02T12:52:24.142Z,13.40
2019-05-02T12:54:54.930Z,13.80
2019-05-02T12:57:25.750Z,14.67
2019-05-02T12:59:56.533Z,12.47
2019-05-02T13:02:37.891Z,12.10
2019-05-02T13:05:08.759Z,13.03
2019-05-02T13:07:42.873Z,12.80
2019-05-02T13:10:14.690Z,12.57
2019-05-02T13:12:45.474Z,13.27
2019-05-02T13:15:16.427Z,12.17
2019-05-02T13:17:48.891Z,13.50
2019-05-02T13:20:22.878Z,12.80
2019-05-02T13:23:13.216Z,11.63
2019-05-02T13:25:44.004Z,11.50
2019-05-02T13:28:17.051Z,11.00
2019-05-02T13:31:02.390Z,10.97
2019-05-02T13:33:43.983Z,10.70
2019-05-02T13:36:43.243Z,11.03
2019-05-02T13:39:18.232Z,11.30
2019-05-02T13:41:49.134Z,11.13
2019-05-02T13:44:24.935Z,11.57
2019-05-02T13:46:55.802Z,11.70
2019-05-02T13:49:26.589Z,12.43
2019-05-02T13:51:57.367Z,12.50
2019-05-02T13:54:28.136Z,13.27
2019-05-02T13:56:59.008Z,11.83
2019-05-02T13:59:29.788Z,12.37
2019-05-02T14:02:02.782Z,12.97
2019-05-02T14:04:33.749Z,12.57
2019-05-02T14:07:07.678Z,12.23
2019-05-02T14:09:39.127Z,12.40
2019-05-02T14:12:11.904Z,13.43
2019-05-02T14:14:42.697Z,14.27
2019-05-02T14:17:13.575Z,12.77
2019-05-02T14:19:44.388Z,12.00
2019-05-02T14:22:15.162Z,12.57
2019-05-02T14:24:45.953Z,14.83
2019-05-02T14:27:17.342Z,12.70
2019-05-02T14:29:48.223Z,13.87
2019-05-02T14:32:23.702Z,13.73
2019-05-02T14:34:53.619Z,14.50
2019-05-02T14:37:24.396Z,13.97
2019-05-02T14:39:57.105Z,14.93
2019-05-02T14:42:27.879Z,14.70
2019-05-02T14:45:08.878Z,15.13
2019-05-02T14:47:32.584Z,16.00
2019-05-02T14:50:20.487Z,14.33
2019-05-02T14:52:43.957Z,13.97
2019-05-02T14:55:17.083Z,14.53
2019-05-02T14:57:46.991Z,15.47
2019-05-02T15:00:18.478Z,14.27
2019-05-02T15:02:49.567Z,14.00
2019-05-02T15:05:27.849Z,14.50
2019-05-02T15:08:02.565Z,14.00
2019-05-02T15:10:36.003Z,14.63
2019-05-02T15:13:05.008Z,13.87
2019-05-02T15:15:40.887Z,12.87
2019-05-02T15:18:15.818Z,11.80
2019-05-02T15:20:43.234Z,16.00
2019-05-02T15:23:19.636Z,14.37
2019-05-02T15:25:54.391Z,15.10
2019-05-02T15:28:22.681Z,14.90
2019-05-02T15:31:11.966Z,15.53
2019-05-02T15:33:47.467Z,15.57
2019-05-02T15:36:18.437Z,15.20
2019-05-02T15:38:49.228Z,15.60
2019-05-02T15:41:21.815Z,13.97
2019-05-02T15:43:53.086Z,14.90
2019-05-02T15:46:28.236Z,13.50
2019-05-02T15:49:01.789Z,15.77
2019-05-02T15:51:32.760Z,15.90
2019-05-02T15:54:08.647Z,15.03
2019-05-02T15:57:00.792Z,15.57
2019-05-02T15:59:32.550Z,15.23
2019-05-02T16:02:08.605Z,15.40
2019-05-02T16:04:41.712Z,14.50
2019-05-02T16:07:12.896Z,15.23
2019-05-02T16:09:43.832Z,14.90
2019-05-02T16:12:14.572Z,15.50
2019-05-02T16:14:45.375Z,14.93
2019-05-02T16:17:17.618Z,14.70
2019-05-02T16:19:52.476Z,14.20
2019-05-02T16:22:23.729Z,15.50
2019-05-02T16:24:56.636Z,15.33
2019-05-02T16:27:46.112Z,15.40
2019-05-02T16:30:22.146Z,15.13
2019-05-02T16:32:54.637Z,14.87
2019-05-02T16:35:27.322Z,15.37
2019-05-02T16:37:58.134Z,15.33
2019-05-02T16:40:32.277Z,14.60
2019-05-02T16:43:02.968Z,15.47
2019-05-02T16:45:33.813Z,14.60
2019-05-02T16:48:04.761Z,15.53
2019-05-02T16:50:37.003Z,14.87
2019-05-02T16:53:08.333Z,14.70
2019-05-02T16:55:39.129Z,15.00
2019-05-02T16:58:11.731Z,14.73
2019-05-02T17:00:45.542Z,15.23
2019-05-02T17:03:17.357Z,14.87
2019-05-02T17:05:49.602Z,15.60
2019-05-02T17:08:25.136Z,15.10
2019-05-02T17:10:57.800Z,15.07
2019-05-02T17:13:32.923Z,13.97
2019-05-02T17:16:06.989Z,14.30
2019-05-02T17:18:34.335Z,13.90
2019-05-02T17:21:05.135Z,14.70
2019-05-02T17:23:37.546Z,13.43
2019-05-02T17:26:08.592Z,13.30
2019-05-02T17:28:43.341Z,14.67
2019-05-02T17:31:19.234Z,14.23
2019-05-02T17:33:46.190Z,14.93
2019-05-02T17:36:23.698Z,13.97
2019-05-02T17:38:53.823Z,12.77
2019-05-02T17:41:22.830Z,13.17
2019-05-02T17:43:56.663Z,14.80
2019-05-02T17:46:26.315Z,14.57
2019-05-02T17:48:57.110Z,14.13
2019-05-02T17:51:33.925Z,14.67
2019-05-02T17:54:02.997Z,14.50
2019-05-02T17:56:33.918Z,13.63
2019-05-02T17:59:04.697Z,16.20
2019-05-02T18:01:37.363Z,15.27
2019-05-02T18:04:12.627Z,14.27
2019-05-02T18:06:41.752Z,14.17
2019-05-02T18:09:15.461Z,14.10
2019-05-02T18:11:45.359Z,14.00
2019-05-02T18:14:21.053Z,13.77
2019-05-02T18:16:53.675Z,12.47
2019-05-02T18:19:24.610Z,13.80
2019-05-02T18:21:58.220Z,12.93
2019-05-02T18:24:26.911Z,13.80
2019-05-02T18:26:57.681Z,12.80
2019-05-02T18:29:28.511Z,13.70
2019-05-02T18:31:59.328Z,12.40
2019-05-02T18:34:30.088Z,13.27
2019-05-02T18:37:04.629Z,13.30
2019-05-02T18:39:34.863Z,15.20
2019-05-02T18:42:06.349Z,14.23
2019-05-02T18:44:37.143Z,14.70
2019-05-02T18:47:12.511Z,14.40
2019-05-02T18:49:41.856Z,15.90
2019-05-02T18:52:12.819Z,15.67
2019-05-02T18:54:47.286Z,13.73
2019-05-02T18:57:17.186Z,12.60
2019-05-02T18:59:51.991Z,13.10
2019-05-02T19:02:26.521Z,13.10
2019-05-02T19:04:54.607Z,14.27
2019-05-02T19:07:33.074Z,14.00
2019-05-02T19:09:58.924Z,14.60
2019-05-02T19:12:32.598Z,13.90
2019-05-02T19:15:07.030Z,14.97
2019-05-02T19:17:38.512Z,14.70
2019-05-02T19:20:22.354Z,14.27
2019-05-02T19:22:56.782Z,15.67
2019-05-02T19:25:26.180Z,14.13
2019-05-02T19:27:59.350Z,15.67
2019-05-02T19:30:32.632Z,15.30
2019-05-02T19:33:07.648Z,14.83
2019-05-02T19:35:37.631Z,13.00
2019-05-02T19:38:08.934Z,12.47
2019-05-02T19:40:39.709Z,11.00
2019-05-02T19:43:12.704Z,11.83
2019-05-02T19:45:45.697Z,11.60
2019-05-02T19:48:16.053Z,13.10
2019-05-02T19:50:46.831Z,11.00
2019-05-02T19:53:19.522Z,11.03
2019-05-02T19:55:52.052Z,12.23
2019-05-02T19:58:23.076Z,13.40
2019-05-02T20:00:54.247Z,13.63
2019-05-02T20:03:26.216Z,11.80
2019-05-02T20:06:02.422Z,13.17
2019-05-02T20:08:29.798Z,15.10
2019-05-02T20:11:02.194Z,13.20
2019-05-02T20:13:33.145Z,15.00
2019-05-02T20:16:14.354Z,15.00
2019-05-02T20:18:47.121Z,13.77
2019-05-02T20:21:25.998Z,21.07
2019-05-02T20:23:52.382Z,15.07
2019-05-02T20:26:23.164Z,15.90
2019-05-02T20:28:53.935Z,15.87
2019-05-02T20:31:25.045Z,15.17
2019-05-02T20:33:55.835Z,14.37
2019-05-02T20:36:26.595Z,13.53
2019-05-02T20:38:57.363Z,14.93
2019-05-02T20:41:28.139Z,14.67
2019-05-02T20:43:58.904Z,13.73
2019-05-02T20:46:29.677Z,14.13
2019-05-02T20:49:02.013Z,13.50
2019-05-02T20:51:32.823Z,14.53
2019-05-02T20:54:03.605Z,13.60
2019-05-02T20:56:34.388Z,13.23
2019-05-02T20:59:05.171Z,12.80
2019-05-02T21:01:35.939Z,12.67
2019-05-02T21:04:06.708Z,12.37
2019-05-02T21:06:44.119Z,13.03
2019-05-02T21:09:16.760Z,13.20
2019-05-02T21:11:49.445Z,13.63
2019-05-02T21:14:21.670Z,12.80
2019-05-02T21:16:52.498Z,14.20
2019-05-02T21:19:23.341Z,13.57
2019-05-02T21:21:54.934Z,14.20
2019-05-02T21:24:25.712Z,13.50
2019-05-02T21:26:56.483Z,14.47
2019-05-02T21:29:27.252Z,14.47
2019-05-02T21:31:58.030Z,13.87
2019-05-02T21:34:28.797Z,14.97
2019-05-02T21:36:59.567Z,13.43
2019-05-02T21:39:31.891Z,16.07
2019-05-02T21:42:02.822Z,14.73
2019-05-02T21:44:33.581Z,15.17
2019-05-02T21:47:05.863Z,15.93
2019-05-02T21:49:42.972Z,16.63
2019-05-02T21:52:32.398Z,16.20
2019-05-02T21:55:24.211Z,17.10
2019-05-02T21:57:54.991Z,15.70
2019-05-02T22:00:46.501Z,16.70
2019-05-02T22:03:17.789Z,17.17
2019-05-02T22:05:48.551Z,17.30
2019-05-02T22:08:19.357Z,18.50
2019-05-02T22:10:52.013Z,18.73
2019-05-02T22:13:22.798Z,19.73
2019-05-02T22:15:53.576Z,18.57
2019-05-02T22:18:24.631Z,19.30
2019-05-02T22:20:55.409Z,19.30
2019-05-02T22:23:26.215Z,18.57
2019-05-02T22:25:56.985Z,19.20
2019-05-02T22:28:27.762Z,18.23
2019-05-02T22:30:58.538Z,18.53
2019-05-02T22:33:29.320Z,20.40
2019-05-02T22:36:01.812Z,20.33
2019-05-02T22:38:37.189Z,20.60
2019-05-02T22:41:07.960Z,21.83
2019-05-02T22:43:38.759Z,18.53
2019-05-02T22:46:11.968Z,18.13
2019-05-02T22:48:44.100Z,18.83
2019-05-02T22:51:14.855Z,18.27
2019-05-02T22:53:45.732Z,18.87
